Time;durP1;ratioP1;P1;durP2;ratioP2;P2;SDS_P1;SDS_P2;PMS_P1;PMS_P2;Temp;Humidity;BMP_temperature;BMP_pressure;BME280_temperature;BME280_humidity;BME280_pressure;Samples;Min_cycle;Max_cycle;Signal;HPM_P1;HPM_P2
2023/01/14 00:01:32;;;;;;;20.50;6.30;;;;;;;-2.88;100.00;101255.91;105502;1257;61229;-61
2023/01/14 00:04:00;;;;;;;19.20;6.50;;;;;;;-2.88;100.00;101255.40;105467;1256;61404;-60
2023/01/14 00:06:29;;;;;;;21.80;4.90;;;;;;;-2.88;100.00;101259.46;105187;1257;77043;-61
2023/01/14 00:08:58;;;;;;;19.00;5.60;;;;;;;-2.88;100.00;101257.98;105067;1257;69311;-60
2023/01/14 00:11:47;;;;;;;18.90;4.60;;;;;;;-2.89;100.00;101258.83;105175;1260;72924;-61
2023/01/14 00:14:15;;;;;;;20.40;5.60;;;;;;;-2.87;100.00;101258.08;105421;1259;62140;-61
2023/01/14 00:16:43;;;;;;;20.60;5.90;;;;;;;-2.87;100.00;101255.36;105453;1256;62035;-60
2023/01/14 00:19:10;;;;;;;20.60;5.10;;;;;;;-2.87;100.00;101253.36;105352;1259;76388;-62
2023/01/14 00:21:37;;;;;;;14.40;5.00;;;;;;;-2.87;100.00;101252.45;105163;1259;69832;-59
2023/01/14 00:24:05;;;;;;;13.50;5.40;;;;;;;-2.86;100.00;101251.73;105283;1256;74164;-60
2023/01/14 00:26:32;;;;;;;17.70;5.30;;;;;;;-2.87;100.00;101250.08;105248;1259;60826;-61
2023/01/14 00:28:59;;;;;;;13.80;5.40;;;;;;;-2.84;100.00;101248.76;105200;1256;61592;-61
2023/01/14 00:31:28;;;;;;;17.80;5.50;;;;;;;-2.83;100.00;101250.77;105473;1259;76220;-62
2023/01/14 00:33:58;;;;;;;21.20;5.30;;;;;;;-2.84;100.00;101249.27;105408;1254;68001;-59
2023/01/14 00:36:25;;;;;;;26.60;5.40;;;;;;;-2.86;100.00;101244.80;105218;1259;75401;-59
2023/01/14 00:38:53;;;;;;;15.10;4.80;;;;;;;-2.89;100.00;101246.26;105289;1257;62305;-59
2023/01/14 00:41:24;;;;;;;13.70;4.90;;;;;;;-2.93;100.00;101245.09;105297;1259;61394;-61
2023/01/14 00:43:52;;;;;;;;;;;;;;;-2.94;100.00;101249.89;105106;1254;76392;-61
2023/01/14 00:46:21;;;;;;;15.40;5.10;;;;;;;-2.94;100.00;101250.94;105182;1257;68211;-59
2023/01/14 00:48:49;;;;;;;16.50;5.60;;;;;;;-2.95;100.00;101251.14;105034;1260;74084;-59
2023/01/14 00:51:16;;;;;;;27.60;5.40;;;;;;;-2.95;100.00;101248.58;105130;1258;62451;-61
2023/01/14 00:53:45;;;;;;;20.60;4.70;;;;;;;-2.95;100.00;101245.38;105257;1255;62966;-63
2023/01/14 00:56:16;;;;;;;18.30;5.30;;;;;;;-2.96;100.00;101248.61;105091;1260;77152;-59
2023/01/14 00:58:44;;;;;;;26.60;5.20;;;;;;;-2.95;100.00;101244.17;105173;1258;68771;-59
2023/01/14 01:01:11;;;;;;;14.10;4.20;;;;;;;-2.94;100.00;101243.28;105152;1256;75061;-60
2023/01/14 01:03:45;;;;;;;19.40;5.20;;;;;;;-2.93;100.00;101241.67;104813;1256;63616;-64
2023/01/14 01:06:13;;;;;;;17.70;4.30;;;;;;;-2.91;100.00;101247.76;105335;1256;61631;-61
2023/01/14 01:08:41;;;;;;;15.50;4.30;;;;;;;-2.89;100.00;101241.81;105350;1257;76388;-61
2023/01/14 01:11:08;;;;;;;12.80;4.70;;;;;;;-2.86;100.00;101238.13;105749;1257;68262;-61
2023/01/14 01:13:36;;;;;;;14.20;4.50;;;;;;;-2.86;100.00;101238.98;105633;1256;74053;-63
2023/01/14 01:16:10;;;;;;;14.30;4.00;;;;;;;-2.87;100.00;101243.46;105406;1259;62313;-60
2023/01/14 01:18:38;;;;;;;13.90;4.70;;;;;;;-2.86;100.00;101240.50;105318;1260;61766;-60
2023/01/14 01:21:10;;;;;;;11.30;4.80;;;;;;;-2.85;100.00;101240.31;105619;1255;74960;-63
2023/01/14 01:23:40;;;;;;;13.30;5.30;;;;;;;-2.85;100.00;101236.70;105283;1260;68654;-61
2023/01/14 01:26:12;;;;;;;;;;;;;;;-2.84;100.00;101232.27;105439;1257;74214;-60
2023/01/14 01:28:39;;;;;;;13.30;5.10;;;;;;;-2.85;100.00;101230.92;105451;1258;62211;-60
2023/01/14 01:31:09;;;;;;;16.00;4.90;;;;;;;-2.86;100.00;101229.28;105810;1255;62610;-63
2023/01/14 01:33:37;;;;;;;13.70;5.00;;;;;;;-2.87;100.00;101228.34;105514;1256;76452;-60
2023/01/14 01:36:06;;;;;;;12.30;5.00;;;;;;;-2.87;100.00;101228.15;105465;1259;68294;-60
2023/01/14 01:38:33;;;;;;;11.60;4.30;;;;;;;-2.86;100.00;101228.76;105285;1259;74395;-62
2023/01/14 01:41:00;;;;;;;11.60;4.30;;;;;;;-2.86;100.00;101232.55;105579;1259;62669;-63
2023/01/14 01:43:28;;;;;;;15.70;4.60;;;;;;;-2.87;100.00;101231.05;105631;1257;62808;-62
2023/01/14 01:46:01;;;;;;;17.90;5.50;;;;;;;-2.85;100.00;101231.44;105555;1256;76324;-61
2023/01/14 01:48:34;;;;;;;14.00;4.60;;;;;;;-2.85;100.00;101235.51;105612;1259;69973;-61
2023/01/14 01:51:07;;;;;;;12.50;5.10;;;;;;;-2.86;100.00;101231.17;105616;1254;74593;-64
2023/01/14 01:53:36;;;;;;;16.70;5.70;;;;;;;-2.86;100.00;101235.05;105144;1254;63448;-62
2023/01/14 01:56:04;;;;;;;15.00;4.80;;;;;;;-2.85;100.00;101231.77;105173;1259;63044;-63
2023/01/14 01:58:31;;;;;;;11.00;4.50;;;;;;;-2.84;100.00;101232.61;105235;1262;75244;-63
2023/01/14 02:00:59;;;;;;;12.40;5.60;;;;;;;-2.83;100.00;101231.02;105097;1259;69009;-62
2023/01/14 02:03:39;;;;;;;14.90;5.00;;;;;;;-2.83;100.00;101232.70;105253;1260;74787;-61
2023/01/14 02:06:08;;;;;;;9.90;4.40;;;;;;;-2.83;100.00;101234.10;105262;1254;63570;-61
2023/01/14 02:08:37;;;;;;;13.60;5.00;;;;;;;-2.82;100.00;101230.14;105338;1254;62815;-62
2023/01/14 02:11:09;;;;;;;12.30;4.30;;;;;;;-2.81;100.00;101235.15;105468;1255;76013;-62
2023/01/14 02:14:18;;;;;;;15.60;5.40;;;;;;;-2.80;100.00;101234.44;105178;1255;69574;-61
2023/01/14 02:16:57;;;;;;;18.70;5.30;;;;;;;-2.79;100.00;101233.53;105667;1259;73795;-61
2023/01/14 02:20:12;;;;;;;15.40;4.40;;;;;;;-2.80;100.00;101231.57;104980;1261;62575;-61
2023/01/14 02:23:17;;;;;;;8.80;3.80;;;;;;;-2.80;100.00;101233.11;105053;1259;63136;-66
2023/01/14 02:26:00;;;;;;;16.20;5.00;;;;;;;-2.84;100.00;101233.30;104911;1257;75287;-60
2023/01/14 02:29:05;;;;;;;12.60;4.40;;;;;;;-2.87;100.00;101235.96;104883;1262;68879;-62
2023/01/14 02:31:46;;;;;;;17.60;4.30;;;;;;;-2.88;100.00;101237.86;105067;1262;74251;-61
2023/01/14 02:34:27;;;;;;;8.90;5.10;;;;;;;-2.87;100.00;101237.17;105274;1257;60995;-62
2023/01/14 02:36:57;;;;;;;14.00;4.30;;;;;;;-2.88;100.00;101235.86;105407;1257;61693;-64
2023/01/14 02:39:28;;;;;;;14.90;4.40;;;;;;;-2.89;100.00;101234.20;105144;1256;75656;-61
2023/01/14 02:44:45;;;;;;;13.00;4.60;;;;;;;-2.91;100.00;101236.67;105131;1257;74114;-63
2023/01/14 02:47:24;;;;;;;9.60;4.10;;;;;;;-2.93;100.00;101237.60;105160;1257;60621;-62
2023/01/14 02:49:53;;;;;;;12.10;4.20;;;;;;;-2.94;100.00;101233.74;105109;1256;63231;-63
2023/01/14 02:52:20;;;;;;;14.70;4.30;;;;;;;-2.95;100.00;101231.39;105231;1254;75529;-63
2023/01/14 02:54:56;;;;;;;16.50;5.70;;;;;;;-2.96;100.00;101225.84;105282;1259;69406;-61
2023/01/14 02:57:24;;;;;;;15.00;5.00;;;;;;;-2.97;100.00;101229.09;105010;1261;74986;-64
2023/01/14 03:00:10;;;;;;;14.20;4.50;;;;;;;-2.95;100.00;101226.66;105453;1254;63568;-63
2023/01/14 03:02:51;;;;;;;12.30;5.20;;;;;;;-2.96;100.00;101227.19;105439;1259;358393;-63
2023/01/14 03:05:30;;;;;;;11.40;4.30;;;;;;;-2.95;100.00;101226.33;104969;1255;75096;-61
2023/01/14 03:08:15;;;;;;;11.70;4.30;;;;;;;-2.95;100.00;101224.58;105249;1259;68362;-61
2023/01/14 03:10:46;;;;;;;10.60;4.70;;;;;;;-2.95;100.00;101222.72;104808;1254;75140;-62
2023/01/14 03:13:25;;;;;;;14.30;4.30;;;;;;;-2.96;100.00;101222.27;105129;1262;61502;-61
2023/01/14 03:16:06;;;;;;;15.00;4.50;;;;;;;-2.97;100.00;101222.98;105318;1254;62807;-61
2023/01/14 03:18:55;;;;;;;14.70;4.00;;;;;;;-2.97;100.00;101223.17;105342;1258;76460;-61
2023/01/14 03:21:27;;;;;;;13.00;4.00;;;;;;;-2.98;100.00;101217.94;105453;1254;69922;-60
2023/01/14 03:24:01;;;;;;;12.50;4.50;;;;;;;-2.97;100.00;101219.63;105071;1257;74133;-60
2023/01/14 03:26:31;;;;;;;13.60;4.30;;;;;;;-2.97;100.00;101219.29;105019;1260;63733;-60
2023/01/14 03:29:00;;;;;;;18.70;6.10;;;;;;;-2.97;100.00;101214.86;105203;1254;62600;-59
2023/01/14 03:31:28;;;;;;;14.40;4.50;;;;;;;-2.98;100.00;101217.23;105172;1259;77145;-60
2023/01/14 03:33:58;;;;;;;17.90;4.50;;;;;;;-2.98;100.00;101216.40;105393;1254;69252;-62
2023/01/14 03:36:26;;;;;;;12.80;4.30;;;;;;;-2.97;100.00;101215.19;105149;1254;75244;-60
2023/01/14 03:38:58;;;;;;;12.70;4.80;;;;;;;-2.98;100.00;101218.81;105306;1259;62350;-63
2023/01/14 03:44:57;;;;;;;15.60;4.50;;;;;;;-2.99;100.00;101220.55;105204;1256;75098;-60
2023/01/14 03:47:28;;;;;;;;;;;;;;;-2.98;100.00;101222.21;105546;1259;69558;-60
2023/01/14 03:49:55;;;;;;;10.00;3.80;;;;;;;-2.98;100.00;101221.52;105510;1259;74111;-62
2023/01/14 03:52:29;;;;;;;13.10;4.30;;;;;;;-2.98;100.00;101224.61;105077;1254;61824;-60
2023/01/14 03:55:04;;;;;;;16.20;4.60;;;;;;;-2.99;100.00;101223.80;105342;1254;60435;-60
2023/01/14 03:57:34;;;;;;;10.10;3.90;;;;;;;-2.99;100.00;101221.76;105085;1258;76569;-60
2023/01/14 04:00:12;;;;;;;15.20;3.40;;;;;;;-2.98;100.00;101222.56;105052;1259;68442;-59
2023/01/14 04:02:39;;;;;;;9.60;4.00;;;;;;;-2.98;100.00;101222.02;105334;1260;74156;-60
2023/01/14 04:05:06;;;;;;;15.50;5.20;;;;;;;-2.99;100.00;101224.80;105179;1262;61788;-61
2023/01/14 04:07:33;;;;;;;9.80;4.10;;;;;;;-2.98;100.00;101224.60;105217;1262;61684;-60
2023/01/14 04:10:01;;;;;;;10.20;3.70;;;;;;;-2.98;100.00;101222.56;105159;1254;75249;-59
2023/01/14 04:12:28;;;;;;;12.30;4.30;;;;;;;-3.00;100.00;101227.20;105184;1259;68150;-60
2023/01/14 04:17:41;;;;;;;12.60;4.60;;;;;;;-2.99;100.00;101228.20;105356;1259;61170;-60
2023/01/14 04:20:09;;;;;;;11.80;4.30;;;;;;;-3.00;100.00;101224.15;105122;1259;63147;-61
2023/01/14 04:22:36;;;;;;;12.20;4.30;;;;;;;-3.01;100.00;101225.55;105068;1254;76792;-61
2023/01/14 04:25:03;;;;;;;10.20;3.60;;;;;;;-3.01;100.00;101223.17;105319;1260;68112;-64
2023/01/14 04:27:30;;;;;;;9.00;4.20;;;;;;;-3.03;100.00;101227.20;105425;1254;75468;-60
2023/01/14 04:29:57;;;;;;;13.20;4.20;;;;;;;-3.05;100.00;101225.39;105309;1258;61126;-62
2023/01/14 04:32:24;;;;;;;18.90;5.30;;;;;;;-3.05;100.00;101221.70;105426;1259;61743;-60
2023/01/14 04:34:51;;;;;;;11.10;3.90;;;;;;;-3.05;100.00;101229.36;105053;1254;74002;-60
2023/01/14 04:37:19;;;;;;;18.00;5.40;;;;;;;-3.05;100.00;101231.21;105297;1260;68664;-60
2023/01/14 04:39:47;;;;;;;15.70;5.10;;;;;;;-3.04;100.00;101234.92;105275;1254;75157;-59
2023/01/14 04:42:26;;;;;;;13.80;4.30;;;;;;;-3.05;100.00;101231.89;105567;1257;61986;-59
2023/01/14 04:45:03;;;;;;;11.70;4.50;;;;;;;-3.07;100.00;101230.78;105134;1260;62593;-60
2023/01/14 04:47:30;;;;;;;16.60;3.90;;;;;;;-3.08;100.00;101230.85;105381;1254;74815;-60
2023/01/14 04:49:57;;;;;;;11.40;4.40;;;;;;;-3.08;100.00;101229.82;105305;1259;68443;-60
2023/01/14 04:52:24;;;;;;;13.60;4.30;;;;;;;-3.09;100.00;101231.75;105547;1259;75215;-61
2023/01/14 04:54:52;;;;;;;8.90;4.90;;;;;;;-3.10;100.00;101230.95;105285;1258;62543;-60
2023/01/14 04:57:19;;;;;;;12.50;4.30;;;;;;;-3.11;100.00;101235.90;105695;1256;62821;-63
2023/01/14 04:59:46;;;;;;;10.80;4.20;;;;;;;-3.12;100.00;101227.61;105052;1259;76242;-61
2023/01/14 05:02:13;;;;;;;17.50;4.40;;;;;;;-3.12;100.00;101229.36;105687;1259;68496;-62
2023/01/14 05:04:41;;;;;;;14.60;4.40;;;;;;;-3.14;100.00;101225.00;105275;1257;74122;-59
2023/01/14 05:07:08;;;;;;;16.50;4.90;;;;;;;-3.14;100.00;101224.50;105305;1254;62581;-59
2023/01/14 05:09:35;;;;;;;10.80;3.80;;;;;;;-3.15;100.00;101223.66;105604;1258;63076;-59
2023/01/14 05:12:02;;;;;;;12.40;4.40;;;;;;;-3.15;100.00;101219.92;105331;1259;76012;-60
2023/01/14 05:14:29;;;;;;;14.90;4.20;;;;;;;-3.15;100.00;101219.09;105334;1257;68265;-64
2023/01/14 05:16:56;;;;;;;15.80;4.40;;;;;;;-3.15;100.00;101217.40;105262;1259;73783;-60
2023/01/14 05:19:24;;;;;;;15.20;4.20;;;;;;;-3.18;100.00;101218.72;105398;1254;62505;-59
2023/01/14 05:21:51;;;;;;;15.00;4.10;;;;;;;-3.20;100.00;101222.20;105165;1257;61714;-59
2023/01/14 05:24:18;;;;;;;17.40;5.40;;;;;;;-3.20;100.00;101219.34;104942;1259;76130;-59
2023/01/14 05:26:46;;;;;;;22.60;4.30;;;;;;;-3.21;100.00;101214.09;105313;1259;69677;-60
2023/01/14 05:29:13;;;;;;;11.80;3.80;;;;;;;-3.23;100.00;101217.23;105176;1258;73874;-60
2023/01/14 05:31:40;;;;;;;15.50;4.70;;;;;;;-3.24;100.00;101216.80;105238;1256;63672;-60
2023/01/14 05:34:07;;;;;;;14.50;4.40;;;;;;;-3.25;100.00;101209.54;105458;1254;63365;-62
2023/01/14 05:36:34;;;;;;;14.10;4.80;;;;;;;-3.25;100.00;101207.96;105307;1256;76272;-61
2023/01/14 05:39:01;;;;;;;11.90;4.70;;;;;;;-3.24;100.00;101209.79;105044;1258;69681;-60
2023/01/14 05:41:28;;;;;;;18.00;5.20;;;;;;;-3.22;100.00;101213.64;104692;1259;73227;-59
2023/01/14 05:46:42;;;;;;;11.90;3.90;;;;;;;-3.24;100.00;101214.05;105170;1259;61759;-61
2023/01/14 05:49:09;;;;;;;15.10;4.70;;;;;;;-3.23;100.00;101219.27;105058;1256;75251;-61
2023/01/14 05:51:36;;;;;;;15.50;4.20;;;;;;;-3.23;100.00;101218.75;106231;1262;68351;-60
2023/01/14 05:54:03;;;;;;;20.30;5.40;;;;;;;-3.22;100.00;101218.05;105109;1261;75203;-60
2023/01/14 05:56:30;;;;;;;16.10;4.20;;;;;;;-3.23;100.00;101222.16;105125;1263;62772;-61
2023/01/14 05:58:58;;;;;;;18.00;5.40;;;;;;;-3.23;100.00;101221.51;105112;1260;61609;-60
2023/01/14 06:06:57;;;;;;;18.20;5.10;;;;;;;-3.21;100.00;101223.46;105135;1257;74980;-59
2023/01/14 06:09:24;;;;;;;20.60;5.90;;;;;;;-3.22;100.00;101221.43;105226;1257;62920;-60
2023/01/14 06:12:02;;;;;;;18.50;4.20;;;;;;;-3.20;100.00;101225.27;105692;1259;61351;-61
2023/01/14 06:14:31;;;;;;;17.70;5.70;;;;;;;-3.18;100.00;101222.82;105246;1255;76146;-61
2023/01/14 06:16:58;;;;;;;18.80;5.50;;;;;;;-3.16;100.00;101219.50;105245;1259;68120;-61
2023/01/14 06:19:25;;;;;;;19.00;4.80;;;;;;;-3.16;100.00;101222.02;105498;1257;73785;-62
2023/01/14 06:21:52;;;;;;;23.60;5.10;;;;;;;-3.14;100.00;101221.08;105142;1259;62285;-62
2023/01/14 06:24:19;;;;;;;18.70;4.70;;;;;;;-3.12;100.00;101225.27;104921;1256;63154;-62
2023/01/14 06:26:46;;;;;;;18.30;5.60;;;;;;;-3.12;100.00;101226.62;105113;1255;75127;-62
2023/01/14 06:29:13;;;;;;;19.20;4.40;;;;;;;-3.13;100.00;101226.81;105274;1257;69638;-62
2023/01/14 06:31:41;;;;;;;21.10;5.00;;;;;;;-3.13;100.00;101229.54;104993;1257;75527;-61
2023/01/14 06:34:09;;;;;;;22.20;5.40;;;;;;;-3.11;100.00;101231.67;105471;1259;61045;-62
2023/01/14 06:36:37;;;;;;;19.80;4.90;;;;;;;-3.12;100.00;101235.27;105473;1259;61634;-61
2023/01/14 06:39:05;;;;;;;23.70;5.50;;;;;;;-3.12;100.00;101234.40;105538;1259;76275;-61
2023/01/14 06:41:32;;;;;;;20.20;4.30;;;;;;;-3.11;100.00;101235.57;105493;1259;68541;-64
2023/01/14 06:43:59;;;;;;;28.70;6.40;;;;;;;-3.12;100.00;101237.65;105334;1257;73953;-60
2023/01/14 06:46:26;;;;;;;23.40;5.30;;;;;;;-3.11;100.00;101236.58;105016;1260;60983;-60
2023/01/14 06:48:54;;;;;;;24.20;5.60;;;;;;;-3.09;100.00;101242.45;105427;1254;61782;-61
2023/01/14 06:51:21;;;;;;;26.30;6.30;;;;;;;-3.09;100.00;101240.59;105464;1259;75088;-63
2023/01/14 06:53:48;;;;;;;17.00;4.80;;;;;;;-3.10;100.00;101239.43;105468;1259;69924;-60
2023/01/14 06:56:16;;;;;;;25.90;5.60;;;;;;;-3.10;100.00;101235.87;105131;1257;74147;-63
2023/01/14 06:58:48;;;;;;;23.90;5.30;;;;;;;-3.07;100.00;101233.70;105485;1260;62463;-60
2023/01/14 07:01:15;;;;;;;;;;;;;;;-3.05;100.00;101235.12;105480;1257;62412;-62
2023/01/14 07:03:42;;;;;;;19.80;5.90;;;;;;;-3.04;100.00;101228.95;105362;1259;76049;-60
2023/01/14 07:06:09;;;;;;;23.50;6.10;;;;;;;-3.02;100.00;101224.11;105774;1259;68416;-63
2023/01/14 07:08:37;;;;;;;21.70;6.20;;;;;;;-3.00;100.00;101224.84;105714;1257;73203;-62
2023/01/14 07:11:04;;;;;;;25.30;5.90;;;;;;;-2.99;100.00;101226.66;105717;1260;62233;-62
2023/01/14 07:13:31;;;;;;;33.30;6.50;;;;;;;-2.97;100.00;101224.72;105743;1259;61844;-64
2023/01/14 07:15:58;;;;;;;27.60;7.10;;;;;;;-2.97;100.00;101225.02;105367;1260;75259;-61
2023/01/14 07:18:26;;;;;;;38.70;9.00;;;;;;;-2.97;100.00;101222.81;104878;1259;68386;-62
2023/01/14 07:20:57;;;;;;;35.60;6.90;;;;;;;-2.95;100.00;101223.44;105383;1259;75089;-62
2023/01/14 07:23:24;;;;;;;26.50;5.80;;;;;;;-2.94;100.00;101230.99;105445;1259;62866;-63
2023/01/14 07:25:55;;;;;;;33.20;7.20;;;;;;;-2.91;100.00;101228.87;105286;1260;61534;-63
2023/01/14 07:28:28;;;;;;;31.10;6.20;;;;;;;-2.89;100.00;101227.89;105017;1257;75124;-61
2023/01/14 07:30:56;;;;;;;29.20;7.30;;;;;;;-2.86;100.00;101232.67;105191;1259;68510;-61
2023/01/14 07:33:23;;;;;;;38.20;7.10;;;;;;;-2.83;100.00;101227.77;105584;1258;74065;-63
2023/01/14 07:35:52;;;;;;;30.20;6.00;;;;;;;-2.80;100.00;101223.20;105429;1259;62982;-63
2023/01/14 07:38:20;;;;;;;27.60;7.00;;;;;;;-2.76;100.00;101225.73;105239;1259;62514;-61
2023/01/14 07:40:47;;;;;;;23.30;7.40;;;;;;;-2.73;100.00;101227.96;105516;1256;75356;-61
2023/01/14 07:43:14;;;;;;;38.90;6.50;;;;;;;-2.71;100.00;101229.41;105191;1260;68688;-58
2023/01/14 07:45:41;;;;;;;27.90;7.40;;;;;;;-2.68;100.00;101227.42;105456;1259;74286;-64
2023/01/14 07:48:08;;;;;;;30.40;6.50;;;;;;;-2.65;100.00;101225.88;105166;1269;61014;-61
2023/01/14 07:50:36;;;;;;;28.20;6.20;;;;;;;-2.61;100.00;101230.12;105096;1260;61474;-61
2023/01/14 07:53:03;;;;;;;35.90;8.10;;;;;;;-2.59;100.00;101233.08;105212;1257;76988;-61
2023/01/14 07:55:30;;;;;;;33.30;6.90;;;;;;;-2.59;100.00;101233.41;105061;1257;68924;-61
2023/01/14 07:57:58;;;;;;;29.30;6.00;;;;;;;-2.58;100.00;101232.34;105374;1260;75525;-61
2023/01/14 08:00:25;;;;;;;25.10;6.20;;;;;;;-2.56;100.00;101235.36;105354;1259;60720;-60
2023/01/14 08:02:52;;;;;;;27.00;5.20;;;;;;;-2.57;100.00;101234.71;105328;1259;61591;-63
2023/01/14 08:05:19;;;;;;;23.00;4.40;;;;;;;-2.55;100.00;101237.67;105145;1259;76341;-62
2023/01/14 08:07:46;;;;;;;36.00;6.70;;;;;;;-2.54;100.00;101238.83;104945;1259;69373;-61
2023/01/14 08:10:13;;;;;;;30.30;6.50;;;;;;;-2.52;100.00;101233.98;105012;1259;73961;-60
2023/01/14 08:12:40;;;;;;;28.90;6.40;;;;;;;-2.51;100.00;101232.50;105483;1260;60700;-63
2023/01/14 08:15:10;;;;;;;41.30;7.60;;;;;;;-2.50;100.00;101233.16;105315;1260;61650;-63
2023/01/14 08:17:38;;;;;;;27.00;5.50;;;;;;;-2.47;100.00;101230.31;105464;1262;76234;-63
2023/01/14 08:20:06;;;;;;;38.40;9.30;;;;;;;-2.48;100.00;101231.67;105152;1262;68757;-61
2023/01/14 08:22:33;;;;;;;32.30;10.50;;;;;;;-2.46;100.00;101231.63;105119;1262;73988;-63
2023/01/14 08:25:00;;;;;;;43.30;10.50;;;;;;;-2.45;100.00;101230.35;105165;1261;62358;-60
2023/01/14 08:27:28;;;;;;;37.00;7.20;;;;;;;-2.45;100.00;101232.26;105216;1259;62668;-62
2023/01/14 08:29:56;;;;;;;32.40;7.90;;;;;;;-2.47;100.00;101227.57;105357;1259;76454;-61
2023/01/14 08:32:23;;;;;;;36.40;7.00;;;;;;;-2.46;100.00;101228.89;104956;1259;68530;-61
2023/01/14 08:34:50;;;;;;;36.60;7.70;;;;;;;-2.47;100.00;101224.15;105195;1259;74406;-59
2023/01/14 08:37:18;;;;;;;27.50;6.20;;;;;;;-2.47;100.00;101219.56;105177;1267;62623;-62
2023/01/14 08:39:45;;;;;;;47.10;10.60;;;;;;;-2.46;100.00;101220.20;105491;1259;61737;-64
2023/01/14 08:42:13;;;;;;;63.90;24.50;;;;;;;-2.44;100.00;101219.23;104933;1259;76879;-59
2023/01/14 08:44:40;;;;;;;28.40;9.30;;;;;;;-2.43;100.00;101216.29;104901;1261;69233;-62
2023/01/14 08:47:07;;;;;;;33.70;8.80;;;;;;;-2.45;100.00;101213.83;105118;1260;74094;-61
2023/01/14 08:49:34;;;;;;;32.80;7.70;;;;;;;-2.43;100.00;101212.91;105564;1261;62600;-62
2023/01/14 08:52:01;;;;;;;40.50;9.90;;;;;;;-2.42;100.00;101209.95;104769;1257;63008;-65
2023/01/14 08:54:28;;;;;;;24.90;7.90;;;;;;;-2.42;100.00;101204.88;105056;1260;76389;-61
2023/01/14 08:56:56;;;;;;;34.80;7.90;;;;;;;-2.40;100.00;101207.34;105488;1259;69715;-61
2023/01/14 08:59:23;;;;;;;38.40;7.10;;;;;;;-2.39;100.00;101199.08;105567;1255;74166;-60
2023/01/14 09:01:51;;;;;;;39.70;10.30;;;;;;;-2.40;100.00;101200.48;105544;1261;62541;-61
2023/01/14 09:04:24;;;;;;;53.40;10.10;;;;;;;-2.43;100.00;101199.13;105633;1261;63047;-60
2023/01/14 09:18:00;;;;;;;37.90;7.20;;;;;;;-2.51;100.00;101186.56;105432;1254;62537;-61
2023/01/14 09:20:31;;;;;;;39.60;9.50;;;;;;;-2.52;100.00;101181.02;104963;1262;76804;-61
2023/01/14 09:22:59;;;;;;;33.20;10.00;;;;;;;-2.53;100.00;101182.95;105101;1259;69543;-61
2023/01/14 09:25:26;;;;;;;41.60;7.40;;;;;;;-2.48;100.00;101177.92;105227;1257;74236;-61
2023/01/14 09:27:53;;;;;;;36.90;7.60;;;;;;;-2.51;100.00;101179.25;105123;1262;62500;-61
2023/01/14 09:30:21;;;;;;;39.40;6.40;;;;;;;-2.54;100.00;101179.23;105165;1260;62223;-61
2023/01/14 09:32:48;;;;;;;30.10;7.60;;;;;;;-2.54;100.00;101178.89;105275;1260;74962;-62
2023/01/14 09:35:15;;;;;;;28.70;7.10;;;;;;;-2.54;100.00;101176.19;105124;1259;68245;-60
2023/01/14 09:37:42;;;;;;;27.10;7.20;;;;;;;-2.56;100.00;101174.92;105343;1260;73737;-61
2023/01/14 09:40:10;;;;;;;38.60;7.50;;;;;;;-2.57;100.00;101173.10;105153;1270;60702;-61
2023/01/14 09:42:43;;;;;;;41.30;8.90;;;;;;;-2.57;100.00;101173.63;105871;1259;62676;-63
2023/01/14 09:45:13;;;;;;;50.00;7.00;;;;;;;-2.59;100.00;101167.23;105295;1264;76046;-61
2023/01/14 09:47:40;;;;;;;37.10;7.60;;;;;;;-2.54;100.00;101164.63;105035;1263;69795;-63
2023/01/14 09:50:30;;;;;;;38.10;8.10;;;;;;;-2.50;100.00;101163.04;105239;1259;74112;-62
2023/01/14 09:53:01;;;;;;;65.60;23.90;;;;;;;-2.50;100.00;101163.70;104803;1268;63541;-61
2023/01/14 09:55:40;;;;;;;47.80;13.40;;;;;;;-2.51;100.00;101166.98;105434;1260;61804;-59
2023/01/14 09:58:35;;;;;;;45.00;14.30;;;;;;;-2.50;100.00;101165.41;104882;1256;76359;-64
2023/01/14 10:01:11;;;;;;;41.40;12.20;;;;;;;-2.50;100.00;101165.92;105277;1254;69798;-62
2023/01/14 10:03:51;;;;;;;44.00;7.40;;;;;;;-2.52;100.00;101164.19;105157;1260;74988;-64
2023/01/14 10:06:18;;;;;;;23.70;6.30;;;;;;;-2.56;100.00;101163.49;104913;1257;63520;-63
2023/01/14 10:08:47;;;;;;;39.20;8.20;;;;;;;-2.57;100.00;101165.63;105096;1254;60397;-61
2023/01/14 10:11:15;;;;;;;35.00;6.90;;;;;;;-2.58;100.00;101163.09;105182;1255;76263;-65
2023/01/14 10:13:55;;;;;;;39.00;9.10;;;;;;;-2.58;100.00;101156.98;104953;1260;69269;-63
2023/01/14 10:16:30;;;;;;;40.90;9.00;;;;;;;-2.58;100.00;101158.16;105081;1254;75017;-61
2023/01/14 10:19:01;;;;;;;34.70;6.90;;;;;;;-2.57;100.00;101155.39;105219;1254;63697;-63
2023/01/14 10:21:58;;;;;;;35.00;7.00;;;;;;;-2.55;100.00;101157.98;105296;1260;62036;-63
2023/01/14 10:24:25;;;;;;;43.00;7.70;;;;;;;-2.53;100.00;101155.56;105033;1259;76170;-62
2023/01/14 10:26:52;;;;;;;35.30;6.70;;;;;;;-2.54;100.00;101153.05;105157;1263;69954;-61
2023/01/14 10:29:23;;;;;;;29.70;6.20;;;;;;;-2.54;100.00;101151.52;105089;1258;75504;-61
2023/01/14 10:31:55;;;;;;;46.20;7.50;;;;;;;-2.56;100.00;101145.14;105394;1259;62615;-61
2023/01/14 10:34:33;;;;;;;38.40;8.50;;;;;;;-2.57;100.00;101145.71;105328;1254;62847;-62
2023/01/14 10:37:03;;;;;;;40.80;7.60;;;;;;;-2.57;100.00;101147.56;105053;1260;76348;-61
2023/01/14 10:39:30;;;;;;;39.90;8.40;;;;;;;-2.54;100.00;101141.48;105265;1260;68412;-60
2023/01/14 10:42:00;;;;;;;35.20;8.20;;;;;;;-2.55;100.00;101138.60;105126;1257;74019;-63
2023/01/14 10:44:29;;;;;;;34.60;10.10;;;;;;;-2.54;100.00;101141.13;104950;1262;61203;-62
2023/01/14 10:46:58;;;;;;;32.60;7.50;;;;;;;-2.56;100.00;101137.50;105228;1257;62565;-62
2023/01/14 10:49:34;;;;;;;40.60;10.70;;;;;;;-2.56;100.00;101139.39;105043;1260;77274;-61
2023/01/14 10:52:02;;;;;;;33.10;8.10;;;;;;;-2.55;100.00;101134.91;105250;1257;69681;-61
2023/01/14 10:54:29;;;;;;;29.70;8.10;;;;;;;-2.54;100.00;101138.39;105172;1260;75023;-63
2023/01/14 10:57:09;;;;;;;28.20;6.90;;;;;;;-2.55;100.00;101137.42;105199;1258;61952;-60
2023/01/14 11:00:03;;;;;;;34.90;7.80;;;;;;;-2.55;100.00;101139.13;104997;1254;61866;-61
2023/01/14 11:02:36;;;;;;;29.90;6.30;;;;;;;-2.56;100.00;101138.16;105251;1257;76289;-61
2023/01/14 11:05:06;;;;;;;37.60;7.10;;;;;;;-2.57;100.00;101139.95;104984;1254;69184;-60
2023/01/14 11:07:34;;;;;;;30.40;8.00;;;;;;;-2.58;100.00;101139.27;105241;1260;75175;-64
2023/01/14 11:10:16;;;;;;;33.50;8.20;;;;;;;-2.57;100.00;101140.10;105492;1263;61812;-62
2023/01/14 11:12:43;;;;;;;26.50;7.20;;;;;;;-2.57;100.00;101136.67;105161;1266;62827;-60
2023/01/14 11:15:37;;;;;;;31.70;8.70;;;;;;;-2.55;100.00;101138.80;105371;1258;76331;-63
2023/01/14 11:18:15;;;;;;;36.00;9.30;;;;;;;-2.54;100.00;101139.24;105306;1260;68584;-60
2023/01/14 11:20:42;;;;;;;37.30;8.80;;;;;;;-2.55;100.00;101133.69;105093;1254;74008;-61
2023/01/14 11:23:19;;;;;;;28.10;6.90;;;;;;;-2.55;100.00;101133.36;105151;1261;62569;-60
2023/01/14 11:25:49;;;;;;;38.70;8.70;;;;;;;-2.56;100.00;101133.23;105019;1256;61853;-59
2023/01/14 11:28:16;;;;;;;35.40;8.40;;;;;;;-2.56;100.00;101133.08;104804;1264;76289;-60
2023/01/14 11:30:43;;;;;;;34.40;7.60;;;;;;;-2.57;100.00;101130.05;105091;1261;69732;-60
2023/01/14 11:33:19;;;;;;;36.60;11.30;;;;;;;-2.57;100.00;101132.94;105227;1261;74012;-63
2023/01/14 11:36:10;;;;;;;25.90;10.00;;;;;;;-2.57;100.00;101129.55;104873;1257;63280;-63
2023/01/14 11:38:46;;;;;;;29.80;7.20;;;;;;;-2.55;100.00;101128.07;108903;1260;62573;-65
2023/01/14 11:41:31;;;;;;;33.10;7.90;;;;;;;-2.52;100.00;101130.48;109071;1256;75938;-62
2023/01/14 11:44:14;;;;;;;44.30;9.30;;;;;;;-2.51;100.00;101131.27;108941;1257;69039;-62
2023/01/14 11:46:44;;;;;;;41.60;8.10;;;;;;;-2.50;100.00;101131.04;108939;1257;73418;-62